Terminal Aerodrome Forecast
Issued by NWS Knoxville/Tri Cities, TN

Home | Current Version | Previous Version | Text Only | Print | Product List | Glossary On
Versions: 1 2 3 4 5 6 7 8 9 10 11 12 13 14 15 16 17 18 19
000
FTUS44 KMRX 252321
TAFCHA
TAF
KCHA 252321Z 2600/2624 35005KT P6SM BKN050
     FM260400 33003KT P6SM SCT050 BKN250
     FM261000 VRB03KT P6SM VCSH SCT030 BKN040
     FM261400 05007KT P6SM -SHRA SCT015 OVC026=

USA.gov is the U.S. government's official web portal to all federal, state and local government web resources and services.